sensor_id;sensor_type;location;lat;lon;timestamp;P1;durP1;ratioP1;P2;durP2;ratioP2
81651;SDS011;71061;55.714;37.794;2024-01-15T00:01:28;13.73;;;5.85;;
81651;SDS011;71061;55.714;37.794;2024-01-15T00:03:55;13.07;;;5.25;;
81651;SDS011;71061;55.714;37.794;2024-01-15T00:06:20;14.02;;;5.47;;
81651;SDS011;71061;55.714;37.794;2024-01-15T00:08:46;11.13;;;5.50;;
81651;SDS011;71061;55.714;37.794;2024-01-15T00:11:12;14.85;;;5.88;;
81651;SDS011;71061;55.714;37.794;2024-01-15T00:13:38;14.25;;;6.20;;
81651;SDS011;71061;55.714;37.794;2024-01-15T00:16:04;18.23;;;7.05;;
81651;SDS011;71061;55.714;37.794;2024-01-15T00:18:50;12.18;;;6.60;;
81651;SDS011;71061;55.714;37.794;2024-01-15T00:21:15;10.45;;;4.80;;
81651;SDS011;71061;55.714;37.794;2024-01-15T00:23:42;15.20;;;6.32;;
81651;SDS011;71061;55.714;37.794;2024-01-15T00:26:09;14.75;;;6.22;;
81651;SDS011;71061;55.714;37.794;2024-01-15T00:28:36;12.30;;;5.60;;
81651;SDS011;71061;55.714;37.794;2024-01-15T00:31:02;12.20;;;5.13;;
81651;SDS011;71061;55.714;37.794;2024-01-15T00:33:47;14.18;;;6.13;;
81651;SDS011;71061;55.714;37.794;2024-01-15T00:36:13;14.32;;;5.65;;
81651;SDS011;71061;55.714;37.794;2024-01-15T00:38:39;10.55;;;5.15;;
81651;SDS011;71061;55.714;37.794;2024-01-15T00:41:05;14.43;;;5.43;;
81651;SDS011;71061;55.714;37.794;2024-01-15T00:43:32;13.35;;;6.43;;
81651;SDS011;71061;55.714;37.794;2024-01-15T00:45:57;12.85;;;5.78;;
81651;SDS011;71061;55.714;37.794;2024-01-15T00:48:43;15.05;;;6.40;;
81651;SDS011;71061;55.714;37.794;2024-01-15T00:51:28;13.43;;;6.50;;
81651;SDS011;71061;55.714;37.794;2024-01-15T00:53:54;17.95;;;6.85;;
81651;SDS011;71061;55.714;37.794;2024-01-15T00:56:20;18.65;;;6.13;;
81651;SDS011;71061;55.714;37.794;2024-01-15T00:58:45;13.30;;;5.28;;
81651;SDS011;71061;55.714;37.794;2024-01-15T01:01:11;14.70;;;6.55;;
81651;SDS011;71061;55.714;37.794;2024-01-15T01:03:37;13.93;;;5.72;;
81651;SDS011;71061;55.714;37.794;2024-01-15T01:06:02;12.93;;;5.95;;
81651;SDS011;71061;55.714;37.794;2024-01-15T01:08:45;13.10;;;6.30;;
81651;SDS011;71061;55.714;37.794;2024-01-15T01:11:14;12.48;;;5.47;;
81651;SDS011;71061;55.714;37.794;2024-01-15T01:13:40;16.50;;;6.47;;
81651;SDS011;71061;55.714;37.794;2024-01-15T01:16:26;14.25;;;6.72;;
81651;SDS011;71061;55.714;37.794;2024-01-15T01:18:52;17.13;;;6.65;;
81651;SDS011;71061;55.714;37.794;2024-01-15T01:21:17;17.75;;;6.80;;
81651;SDS011;71061;55.714;37.794;2024-01-15T01:23:43;12.52;;;6.45;;
81651;SDS011;71061;55.714;37.794;2024-01-15T01:26:09;12.30;;;6.03;;
81651;SDS011;71061;55.714;37.794;2024-01-15T01:28:35;12.18;;;5.80;;
81651;SDS011;71061;55.714;37.794;2024-01-15T01:31:01;12.55;;;6.10;;
81651;SDS011;71061;55.714;37.794;2024-01-15T01:33:26;13.43;;;6.45;;
81651;SDS011;71061;55.714;37.794;2024-01-15T01:35:52;13.02;;;6.40;;
81651;SDS011;71061;55.714;37.794;2024-01-15T01:38:18;14.25;;;5.97;;
81651;SDS011;71061;55.714;37.794;2024-01-15T01:40:44;12.10;;;5.95;;
81651;SDS011;71061;55.714;37.794;2024-01-15T01:43:10;14.10;;;6.60;;
81651;SDS011;71061;55.714;37.794;2024-01-15T01:45:36;15.77;;;6.35;;
81651;SDS011;71061;55.714;37.794;2024-01-15T01:48:02;14.02;;;6.50;;
81651;SDS011;71061;55.714;37.794;2024-01-15T01:50:48;13.02;;;6.32;;
81651;SDS011;71061;55.714;37.794;2024-01-15T01:53:13;13.95;;;7.07;;
81651;SDS011;71061;55.714;37.794;2024-01-15T01:55:39;13.88;;;6.82;;
81651;SDS011;71061;55.714;37.794;2024-01-15T01:58:05;14.77;;;6.28;;
81651;SDS011;71061;55.714;37.794;2024-01-15T02:00:51;13.98;;;7.05;;
81651;SDS011;71061;55.714;37.794;2024-01-15T02:03:16;11.65;;;6.47;;
81651;SDS011;71061;55.714;37.794;2024-01-15T02:05:42;16.30;;;6.65;;
81651;SDS011;71061;55.714;37.794;2024-01-15T02:08:30;14.73;;;7.05;;
81651;SDS011;71061;55.714;37.794;2024-01-15T02:10:55;17.33;;;7.07;;
81651;SDS011;71061;55.714;37.794;2024-01-15T02:13:21;16.67;;;6.68;;
81651;SDS011;71061;55.714;37.794;2024-01-15T02:16:07;17.23;;;6.20;;
81651;SDS011;71061;55.714;37.794;2024-01-15T02:18:48;13.82;;;6.50;;
81651;SDS011;71061;55.714;37.794;2024-01-15T02:24:19;14.45;;;6.45;;
81651;SDS011;71061;55.714;37.794;2024-01-15T02:27:05;17.17;;;8.80;;
81651;SDS011;71061;55.714;37.794;2024-01-15T02:29:30;22.38;;;8.85;;
81651;SDS011;71061;55.714;37.794;2024-01-15T02:31:56;17.95;;;8.93;;
81651;SDS011;71061;55.714;37.794;2024-01-15T02:34:22;14.93;;;7.03;;
81651;SDS011;71061;55.714;37.794;2024-01-15T02:37:08;15.23;;;6.50;;
81651;SDS011;71061;55.714;37.794;2024-01-15T02:39:53;14.43;;;7.60;;
81651;SDS011;71061;55.714;37.794;2024-01-15T02:42:39;13.95;;;6.20;;
81651;SDS011;71061;55.714;37.794;2024-01-15T02:45:24;16.70;;;7.63;;
81651;SDS011;71061;55.714;37.794;2024-01-15T02:47:50;16.25;;;7.13;;
81651;SDS011;71061;55.714;37.794;2024-01-15T02:50:16;14.88;;;6.18;;
81651;SDS011;71061;55.714;37.794;2024-01-15T02:52:42;13.13;;;6.68;;
81651;SDS011;71061;55.714;37.794;2024-01-15T02:57:54;14.40;;;6.80;;
81651;SDS011;71061;55.714;37.794;2024-01-15T03:00:20;15.50;;;7.50;;
81651;SDS011;71061;55.714;37.794;2024-01-15T03:02:48;13.02;;;7.47;;
81651;SDS011;71061;55.714;37.794;2024-01-15T03:05:15;18.00;;;7.15;;
81651;SDS011;71061;55.714;37.794;2024-01-15T03:07:41;15.35;;;7.25;;
81651;SDS011;71061;55.714;37.794;2024-01-15T03:10:07;17.40;;;7.07;;
81651;SDS011;71061;55.714;37.794;2024-01-15T03:12:33;15.30;;;7.65;;
81651;SDS011;71061;55.714;37.794;2024-01-15T03:14:59;19.13;;;7.40;;
81651;SDS011;71061;55.714;37.794;2024-01-15T03:17:45;14.60;;;7.15;;
81651;SDS011;71061;55.714;37.794;2024-01-15T03:20:11;13.10;;;7.20;;
81651;SDS011;71061;55.714;37.794;2024-01-15T03:22:36;12.13;;;6.72;;
81651;SDS011;71061;55.714;37.794;2024-01-15T03:25:22;13.80;;;6.90;;
81651;SDS011;71061;55.714;37.794;2024-01-15T03:27:48;17.58;;;8.30;;
81651;SDS011;71061;55.714;37.794;2024-01-15T03:30:13;14.38;;;7.45;;
81651;SDS011;71061;55.714;37.794;2024-01-15T03:32:39;16.98;;;7.95;;
81651;SDS011;71061;55.714;37.794;2024-01-15T03:35:25;14.13;;;7.32;;
81651;SDS011;71061;55.714;37.794;2024-01-15T03:37:54;13.35;;;7.53;;
81651;SDS011;71061;55.714;37.794;2024-01-15T03:40:20;16.40;;;7.63;;
81651;SDS011;71061;55.714;37.794;2024-01-15T03:42:46;14.90;;;6.78;;
81651;SDS011;71061;55.714;37.794;2024-01-15T03:45:11;14.00;;;6.25;;
81651;SDS011;71061;55.714;37.794;2024-01-15T03:47:37;19.75;;;8.10;;
81651;SDS011;71061;55.714;37.794;2024-01-15T03:50:03;16.27;;;8.15;;
81651;SDS011;71061;55.714;37.794;2024-01-15T03:52:29;18.42;;;7.53;;
81651;SDS011;71061;55.714;37.794;2024-01-15T03:54:55;15.30;;;8.00;;
81651;SDS011;71061;55.714;37.794;2024-01-15T03:57:21;18.95;;;9.25;;
81651;SDS011;71061;55.714;37.794;2024-01-15T03:59:46;15.20;;;7.60;;
81651;SDS011;71061;55.714;37.794;2024-01-15T04:02:12;16.15;;;7.97;;
81651;SDS011;71061;55.714;37.794;2024-01-15T04:04:40;15.82;;;7.57;;
81651;SDS011;71061;55.714;37.794;2024-01-15T04:07:07;16.98;;;7.88;;
81651;SDS011;71061;55.714;37.794;2024-01-15T04:09:34;24.23;;;9.48;;
81651;SDS011;71061;55.714;37.794;2024-01-15T04:11:59;17.85;;;8.55;;
81651;SDS011;71061;55.714;37.794;2024-01-15T04:14:25;18.92;;;8.70;;
81651;SDS011;71061;55.714;37.794;2024-01-15T04:16:51;15.40;;;7.95;;
81651;SDS011;71061;55.714;37.794;2024-01-15T04:19:36;16.92;;;8.13;;
81651;SDS011;71061;55.714;37.794;2024-01-15T04:22:02;17.38;;;9.25;;
81651;SDS011;71061;55.714;37.794;2024-01-15T04:24:28;17.60;;;8.85;;
81651;SDS011;71061;55.714;37.794;2024-01-15T04:26:53;20.08;;;10.82;;
81651;SDS011;71061;55.714;37.794;2024-01-15T04:29:39;20.38;;;9.35;;
81651;SDS011;71061;55.714;37.794;2024-01-15T04:32:05;15.88;;;8.10;;
81651;SDS011;71061;55.714;37.794;2024-01-15T04:34:31;16.85;;;8.48;;
81651;SDS011;71061;55.714;37.794;2024-01-15T04:36:57;17.58;;;8.65;;
81651;SDS011;71061;55.714;37.794;2024-01-15T04:39:22;16.25;;;8.90;;
81651;SDS011;71061;55.714;37.794;2024-01-15T04:42:08;19.88;;;8.07;;
81651;SDS011;71061;55.714;37.794;2024-01-15T04:44:34;20.55;;;8.85;;
81651;SDS011;71061;55.714;37.794;2024-01-15T04:46:59;18.00;;;8.38;;
81651;SDS011;71061;55.714;37.794;2024-01-15T04:49:25;18.52;;;9.25;;
81651;SDS011;71061;55.714;37.794;2024-01-15T04:51:52;16.05;;;8.75;;
81651;SDS011;71061;55.714;37.794;2024-01-15T04:54:18;18.60;;;8.38;;
81651;SDS011;71061;55.714;37.794;2024-01-15T04:56:44;19.60;;;9.65;;
81651;SDS011;71061;55.714;37.794;2024-01-15T04:59:10;16.75;;;8.68;;
81651;SDS011;71061;55.714;37.794;2024-01-15T05:01:36;19.77;;;9.65;;
81651;SDS011;71061;55.714;37.794;2024-01-15T05:04:02;17.67;;;8.77;;
81651;SDS011;71061;55.714;37.794;2024-01-15T05:06:28;21.38;;;8.98;;
81651;SDS011;71061;55.714;37.794;2024-01-15T05:09:13;25.58;;;11.82;;
81651;SDS011;71061;55.714;37.794;2024-01-15T05:11:39;24.73;;;10.40;;
81651;SDS011;71061;55.714;37.794;2024-01-15T05:14:05;22.55;;;11.15;;
81651;SDS011;71061;55.714;37.794;2024-01-15T05:16:51;23.70;;;13.13;;
81651;SDS011;71061;55.714;37.794;2024-01-15T05:19:36;18.20;;;9.50;;
81651;SDS011;71061;55.714;37.794;2024-01-15T05:22:02;20.00;;;9.20;;
81651;SDS011;71061;55.714;37.794;2024-01-15T05:24:28;21.00;;;9.52;;
81651;SDS011;71061;55.714;37.794;2024-01-15T05:26:53;22.63;;;10.02;;
81651;SDS011;71061;55.714;37.794;2024-01-15T05:29:22;24.23;;;11.45;;
81651;SDS011;71061;55.714;37.794;2024-01-15T05:34:34;18.80;;;9.15;;
81651;SDS011;71061;55.714;37.794;2024-01-15T05:36:59;20.73;;;9.63;;
81651;SDS011;71061;55.714;37.794;2024-01-15T05:39:25;21.50;;;10.02;;
81651;SDS011;71061;55.714;37.794;2024-01-15T05:41:51;20.75;;;9.55;;
81651;SDS011;71061;55.714;37.794;2024-01-15T05:44:17;18.80;;;9.32;;
81651;SDS011;71061;55.714;37.794;2024-01-15T05:46:43;23.75;;;11.43;;
81651;SDS011;71061;55.714;37.794;2024-01-15T05:49:28;21.55;;;9.82;;
81651;SDS011;71061;55.714;37.794;2024-01-15T05:51:54;20.08;;;9.23;;
81651;SDS011;71061;55.714;37.794;2024-01-15T05:54:20;21.40;;;10.00;;
81651;SDS011;71061;55.714;37.794;2024-01-15T05:56:46;19.77;;;10.27;;
81651;SDS011;71061;55.714;37.794;2024-01-15T05:59:11;16.67;;;9.20;;
81651;SDS011;71061;55.714;37.794;2024-01-15T06:01:37;20.02;;;9.38;;
81651;SDS011;71061;55.714;37.794;2024-01-15T06:04:03;23.23;;;9.50;;
81651;SDS011;71061;55.714;37.794;2024-01-15T06:06:29;22.85;;;10.23;;
81651;SDS011;71061;55.714;37.794;2024-01-15T06:08:54;20.40;;;10.13;;
81651;SDS011;71061;55.714;37.794;2024-01-15T06:11:40;21.35;;;11.27;;
81651;SDS011;71061;55.714;37.794;2024-01-15T06:14:06;20.02;;;9.85;;
81651;SDS011;71061;55.714;37.794;2024-01-15T06:16:31;20.52;;;9.50;;
81651;SDS011;71061;55.714;37.794;2024-01-15T06:18:57;22.02;;;9.18;;
81651;SDS011;71061;55.714;37.794;2024-01-15T06:21:23;19.88;;;9.82;;
81651;SDS011;71061;55.714;37.794;2024-01-15T06:26:54;23.65;;;10.75;;
81651;SDS011;71061;55.714;37.794;2024-01-15T06:29:20;25.02;;;10.73;;
81651;SDS011;71061;55.714;37.794;2024-01-15T06:31:46;21.77;;;9.73;;
81651;SDS011;71061;55.714;37.794;2024-01-15T06:34:12;21.85;;;9.60;;
81651;SDS011;71061;55.714;37.794;2024-01-15T06:36:38;23.02;;;10.10;;
81651;SDS011;71061;55.714;37.794;2024-01-15T06:39:03;20.48;;;9.38;;
81651;SDS011;71061;55.714;37.794;2024-01-15T06:41:30;21.42;;;9.85;;
81651;SDS011;71061;55.714;37.794;2024-01-15T06:44:16;23.70;;;10.77;;
81651;SDS011;71061;55.714;37.794;2024-01-15T06:46:42;22.13;;;10.02;;
81651;SDS011;71061;55.714;37.794;2024-01-15T06:49:28;19.60;;;9.57;;
81651;SDS011;71061;55.714;37.794;2024-01-15T06:51:55;22.83;;;11.65;;
81651;SDS011;71061;55.714;37.794;2024-01-15T06:54:21;26.30;;;10.18;;
81651;SDS011;71061;55.714;37.794;2024-01-15T06:56:47;26.33;;;11.30;;
81651;SDS011;71061;55.714;37.794;2024-01-15T06:59:13;22.55;;;10.65;;
81651;SDS011;71061;55.714;37.794;2024-01-15T07:01:39;23.33;;;10.85;;
81651;SDS011;71061;55.714;37.794;2024-01-15T07:04:06;20.05;;;10.45;;
81651;SDS011;71061;55.714;37.794;2024-01-15T07:06:31;20.25;;;10.43;;
81651;SDS011;71061;55.714;37.794;2024-01-15T07:08:57;21.33;;;11.85;;
81651;SDS011;71061;55.714;37.794;2024-01-15T07:11:23;21.98;;;10.68;;
81651;SDS011;71061;55.714;37.794;2024-01-15T07:13:49;26.75;;;10.65;;
81651;SDS011;71061;55.714;37.794;2024-01-15T07:16:14;21.83;;;10.63;;
81651;SDS011;71061;55.714;37.794;2024-01-15T07:19:00;21.83;;;11.02;;
81651;SDS011;71061;55.714;37.794;2024-01-15T07:21:26;22.30;;;11.02;;
81651;SDS011;71061;55.714;37.794;2024-01-15T07:23:52;21.75;;;9.90;;
81651;SDS011;71061;55.714;37.794;2024-01-15T07:26:18;25.10;;;10.23;;
81651;SDS011;71061;55.714;37.794;2024-01-15T07:28:43;21.15;;;10.85;;
81651;SDS011;71061;55.714;37.794;2024-01-15T07:31:09;26.88;;;11.75;;
81651;SDS011;71061;55.714;37.794;2024-01-15T07:33:35;23.10;;;12.05;;
81651;SDS011;71061;55.714;37.794;2024-01-15T07:36:00;20.20;;;9.95;;
81651;SDS011;71061;55.714;37.794;2024-01-15T07:38:28;19.80;;;10.45;;
81651;SDS011;71061;55.714;37.794;2024-01-15T07:40:54;19.90;;;9.88;;
81651;SDS011;71061;55.714;37.794;2024-01-15T07:46:06;20.00;;;10.13;;
81651;SDS011;71061;55.714;37.794;2024-01-15T07:48:32;24.50;;;10.85;;
81651;SDS011;71061;55.714;37.794;2024-01-15T07:50:58;20.08;;;10.40;;
81651;SDS011;71061;55.714;37.794;2024-01-15T07:53:24;22.23;;;10.13;;
81651;SDS011;71061;55.714;37.794;2024-01-15T07:55:49;21.88;;;10.45;;
81651;SDS011;71061;55.714;37.794;2024-01-15T07:58:15;20.23;;;10.35;;
81651;SDS011;71061;55.714;37.794;2024-01-15T08:00:41;23.27;;;11.55;;
81651;SDS011;71061;55.714;37.794;2024-01-15T08:03:06;21.92;;;11.88;;
81651;SDS011;71061;55.714;37.794;2024-01-15T08:05:52;23.52;;;10.57;;
81651;SDS011;71061;55.714;37.794;2024-01-15T08:08:38;20.65;;;11.30;;
81651;SDS011;71061;55.714;37.794;2024-01-15T08:11:03;23.40;;;11.70;;
81651;SDS011;71061;55.714;37.794;2024-01-15T08:13:29;24.27;;;10.75;;
81651;SDS011;71061;55.714;37.794;2024-01-15T08:15:56;21.73;;;10.82;;
81651;SDS011;71061;55.714;37.794;2024-01-15T08:18:21;27.25;;;10.77;;
81651;SDS011;71061;55.714;37.794;2024-01-15T08:20:47;21.55;;;10.15;;
81651;SDS011;71061;55.714;37.794;2024-01-15T08:23:13;24.92;;;11.27;;
81651;SDS011;71061;55.714;37.794;2024-01-15T08:25:39;20.17;;;9.23;;
81651;SDS011;71061;55.714;37.794;2024-01-15T08:28:05;20.73;;;9.98;;
81651;SDS011;71061;55.714;37.794;2024-01-15T08:30:30;21.20;;;9.88;;
81651;SDS011;71061;55.714;37.794;2024-01-15T08:32:56;27.75;;;11.23;;
81651;SDS011;71061;55.714;37.794;2024-01-15T08:35:22;23.38;;;10.23;;
81651;SDS011;71061;55.714;37.794;2024-01-15T08:38:08;24.95;;;10.77;;
81651;SDS011;71061;55.714;37.794;2024-01-15T08:40:34;20.73;;;9.38;;
81651;SDS011;71061;55.714;37.794;2024-01-15T08:43:00;18.63;;;9.25;;
81651;SDS011;71061;55.714;37.794;2024-01-15T08:45:27;21.85;;;10.50;;
81651;SDS011;71061;55.714;37.794;2024-01-15T08:47:52;22.48;;;9.80;;
81651;SDS011;71061;55.714;37.794;2024-01-15T08:50:18;22.90;;;11.07;;
81651;SDS011;71061;55.714;37.794;2024-01-15T08:52:44;21.20;;;9.45;;
81651;SDS011;71061;55.714;37.794;2024-01-15T08:55:11;21.30;;;10.30;;
81651;SDS011;71061;55.714;37.794;2024-01-15T08:57:38;22.02;;;10.02;;
81651;SDS011;71061;55.714;37.794;2024-01-15T09:00:05;20.58;;;10.95;;
81651;SDS011;71061;55.714;37.794;2024-01-15T09:02:34;22.40;;;11.27;;
81651;SDS011;71061;55.714;37.794;2024-01-15T09:05:20;21.75;;;9.70;;
81651;SDS011;71061;55.714;37.794;2024-01-15T09:07:46;20.17;;;9.85;;
81651;SDS011;71061;55.714;37.794;2024-01-15T09:10:32;18.55;;;9.35;;
81651;SDS011;71061;55.714;37.794;2024-01-15T09:12:57;20.42;;;9.70;;
81651;SDS011;71061;55.714;37.794;2024-01-15T09:15:43;20.63;;;10.07;;
81651;SDS011;71061;55.714;37.794;2024-01-15T09:18:09;20.10;;;9.93;;
81651;SDS011;71061;55.714;37.794;2024-01-15T09:20:35;22.08;;;9.40;;
81651;SDS011;71061;55.714;37.794;2024-01-15T09:23:01;19.20;;;9.45;;
81651;SDS011;71061;55.714;37.794;2024-01-15T09:25:26;19.83;;;9.57;;
81651;SDS011;71061;55.714;37.794;2024-01-15T09:27:52;21.40;;;10.25;;
81651;SDS011;71061;55.714;37.794;2024-01-15T09:30:18;19.77;;;9.73;;
81651;SDS011;71061;55.714;37.794;2024-01-15T09:32:44;19.58;;;10.90;;
81651;SDS011;71061;55.714;37.794;2024-01-15T09:35:09;18.67;;;9.88;;
81651;SDS011;71061;55.714;37.794;2024-01-15T09:37:35;18.40;;;9.15;;
81651;SDS011;71061;55.714;37.794;2024-01-15T09:40:02;21.02;;;10.05;;
81651;SDS011;71061;55.714;37.794;2024-01-15T09:42:29;16.70;;;9.45;;
81651;SDS011;71061;55.714;37.794;2024-01-15T09:44:55;21.42;;;10.55;;
81651;SDS011;71061;55.714;37.794;2024-01-15T09:53:13;19.25;;;10.30;;
81651;SDS011;71061;55.714;37.794;2024-01-15T09:55:40;19.00;;;10.85;;
81651;SDS011;71061;55.714;37.794;2024-01-15T09:58:06;20.95;;;10.63;;
81651;SDS011;71061;55.714;37.794;2024-01-15T10:00:33;20.92;;;10.35;;
81651;SDS011;71061;55.714;37.794;2024-01-15T10:03:02;18.40;;;9.05;;
81651;SDS011;71061;55.714;37.794;2024-01-15T10:05:28;22.35;;;10.13;;
81651;SDS011;71061;55.714;37.794;2024-01-15T10:07:54;17.52;;;9.82;;
81651;SDS011;71061;55.714;37.794;2024-01-15T10:10:22;18.23;;;10.15;;
81651;SDS011;71061;55.714;37.794;2024-01-15T10:12:48;20.20;;;11.07;;
81651;SDS011;71061;55.714;37.794;2024-01-15T10:15:15;19.13;;;9.90;;
81651;SDS011;71061;55.714;37.794;2024-01-15T10:17:42;19.67;;;9.00;;
81651;SDS011;71061;55.714;37.794;2024-01-15T10:20:28;21.05;;;9.77;;
81651;SDS011;71061;55.714;37.794;2024-01-15T10:23:14;20.08;;;9.68;;
81651;SDS011;71061;55.714;37.794;2024-01-15T10:25:41;19.90;;;10.60;;
81651;SDS011;71061;55.714;37.794;2024-01-15T10:28:07;19.88;;;9.43;;
81651;SDS011;71061;55.714;37.794;2024-01-15T10:30:34;19.52;;;9.80;;
81651;SDS011;71061;55.714;37.794;2024-01-15T10:35:37;19.17;;;10.40;;
81651;SDS011;71061;55.714;37.794;2024-01-15T10:38:03;16.20;;;9.00;;
81651;SDS011;71061;55.714;37.794;2024-01-15T10:40:31;16.90;;;9.35;;
81651;SDS011;71061;55.714;37.794;2024-01-15T10:42:57;20.92;;;10.57;;
81651;SDS011;71061;55.714;37.794;2024-01-15T10:45:23;19.38;;;9.85;;
81651;SDS011;71061;55.714;37.794;2024-01-15T10:47:49;19.10;;;9.70;;
81651;SDS011;71061;55.714;37.794;2024-01-15T10:50:15;19.48;;;8.95;;
81651;SDS011;71061;55.714;37.794;2024-01-15T10:52:42;21.13;;;9.77;;
81651;SDS011;71061;55.714;37.794;2024-01-15T10:55:10;20.77;;;8.77;;
81651;SDS011;71061;55.714;37.794;2024-01-15T10:57:36;18.15;;;9.00;;
81651;SDS011;71061;55.714;37.794;2024-01-15T11:00:03;20.40;;;10.15;;
81651;SDS011;71061;55.714;37.794;2024-01-15T11:02:32;19.02;;;10.70;;
81651;SDS011;71061;55.714;37.794;2024-01-15T11:05:01;22.58;;;10.73;;
81651;SDS011;71061;55.714;37.794;2024-01-15T11:10:43;18.98;;;9.48;;
81651;SDS011;71061;55.714;37.794;2024-01-15T11:13:15;20.25;;;9.07;;
81651;SDS011;71061;55.714;37.794;2024-01-15T11:16:02;19.33;;;9.25;;
81651;SDS011;71061;55.714;37.794;2024-01-15T11:18:30;21.58;;;10.13;;
81651;SDS011;71061;55.714;37.794;2024-01-15T11:29:07;22.25;;;13.88;;
81651;SDS011;71061;55.714;37.794;2024-01-15T11:37:28;18.40;;;9.70;;
81651;SDS011;71061;55.714;37.794;2024-01-15T11:39:55;18.02;;;9.05;;
81651;SDS011;71061;55.714;37.794;2024-01-15T11:42:29;17.05;;;8.90;;
81651;SDS011;71061;55.714;37.794;2024-01-15T11:44:55;19.52;;;8.55;;
81651;SDS011;71061;55.714;37.794;2024-01-15T11:50:34;20.45;;;9.52;;
81651;SDS011;71061;55.714;37.794;2024-01-15T11:53:01;18.50;;;8.73;;
81651;SDS011;71061;55.714;37.794;2024-01-15T11:55:30;18.40;;;9.40;;
81651;SDS011;71061;55.714;37.794;2024-01-15T11:58:00;16.25;;;8.68;;
81651;SDS011;71061;55.714;37.794;2024-01-15T12:00:47;17.02;;;8.75;;
81651;SDS011;71061;55.714;37.794;2024-01-15T12:03:15;17.33;;;8.75;;
81651;SDS011;71061;55.714;37.794;2024-01-15T12:05:41;16.58;;;8.68;;
81651;SDS011;71061;55.714;37.794;2024-01-15T12:08:07;17.05;;;8.93;;
81651;SDS011;71061;55.714;37.794;2024-01-15T12:10:37;17.13;;;9.07;;
81651;SDS011;71061;55.714;37.794;2024-01-15T12:13:05;17.95;;;9.52;;
81651;SDS011;71061;55.714;37.794;2024-01-15T12:15:35;20.67;;;10.98;;
81651;SDS011;71061;55.714;37.794;2024-01-15T12:18:21;20.00;;;8.88;;
81651;SDS011;71061;55.714;37.794;2024-01-15T12:20:47;20.65;;;9.20;;
81651;SDS011;71061;55.714;37.794;2024-01-15T12:23:12;19.05;;;9.77;;
81651;SDS011;71061;55.714;37.794;2024-01-15T12:25:39;17.13;;;8.27;;
81651;SDS011;71061;55.714;37.794;2024-01-15T12:28:05;19.02;;;9.13;;
81651;SDS011;71061;55.714;37.794;2024-01-15T12:30:51;16.92;;;8.32;;
81651;SDS011;71061;55.714;37.794;2024-01-15T12:33:17;19.35;;;8.88;;
81651;SDS011;71061;55.714;37.794;2024-01-15T12:38:29;19.88;;;10.38;;
81651;SDS011;71061;55.714;37.794;2024-01-15T12:40:55;21.02;;;9.30;;
81651;SDS011;71061;55.714;37.794;2024-01-15T12:43:21;20.58;;;10.25;;
81651;SDS011;71061;55.714;37.794;2024-01-15T12:46:06;19.48;;;8.93;;
81651;SDS011;71061;55.714;37.794;2024-01-15T12:48:32;20.67;;;9.88;;
81651;SDS011;71061;55.714;37.794;2024-01-15T12:50:58;17.90;;;8.68;;
81651;SDS011;71061;55.714;37.794;2024-01-15T12:53:23;23.95;;;10.57;;
81651;SDS011;71061;55.714;37.794;2024-01-15T12:55:49;17.75;;;8.75;;
81651;SDS011;71061;55.714;37.794;2024-01-15T12:58:15;21.08;;;9.70;;
81651;SDS011;71061;55.714;37.794;2024-01-15T13:01:01;20.00;;;9.98;;
81651;SDS011;71061;55.714;37.794;2024-01-15T13:03:26;18.80;;;9.73;;
81651;SDS011;71061;55.714;37.794;2024-01-15T13:05:52;20.55;;;9.25;;
81651;SDS011;71061;55.714;37.794;2024-01-15T13:11:04;19.50;;;9.35;;
81651;SDS011;71061;55.714;37.794;2024-01-15T13:13:30;25.35;;;10.70;;
81651;SDS011;71061;55.714;37.794;2024-01-15T13:16:16;29.80;;;11.15;;
81651;SDS011;71061;55.714;37.794;2024-01-15T13:21:29;19.73;;;10.43;;
81651;SDS011;71061;55.714;37.794;2024-01-15T13:23:55;17.70;;;8.80;;
81651;SDS011;71061;55.714;37.794;2024-01-15T13:26:21;19.52;;;9.65;;
81651;SDS011;71061;55.714;37.794;2024-01-15T13:28:47;17.70;;;8.75;;
81651;SDS011;71061;55.714;37.794;2024-01-15T13:31:13;20.40;;;9.75;;
81651;SDS011;71061;55.714;37.794;2024-01-15T13:33:39;18.55;;;8.65;;
81651;SDS011;71061;55.714;37.794;2024-01-15T13:36:05;17.50;;;8.93;;
81651;SDS011;71061;55.714;37.794;2024-01-15T13:38:33;19.83;;;9.07;;
81651;SDS011;71061;55.714;37.794;2024-01-15T13:41:02;16.73;;;8.93;;
81651;SDS011;71061;55.714;37.794;2024-01-15T13:46:14;16.38;;;8.73;;
81651;SDS011;71061;55.714;37.794;2024-01-15T13:49:01;22.25;;;10.90;;
81651;SDS011;71061;55.714;37.794;2024-01-15T13:51:46;23.17;;;11.48;;
81651;SDS011;71061;55.714;37.794;2024-01-15T13:54:12;27.20;;;12.88;;
81651;SDS011;71061;55.714;37.794;2024-01-15T13:56:38;20.02;;;10.52;;
81651;SDS011;71061;55.714;37.794;2024-01-15T13:59:03;17.65;;;10.02;;
81651;SDS011;71061;55.714;37.794;2024-01-15T14:01:30;18.05;;;9.48;;
81651;SDS011;71061;55.714;37.794;2024-01-15T14:03:56;20.08;;;9.73;;
81651;SDS011;71061;55.714;37.794;2024-01-15T14:06:22;23.98;;;10.38;;
81651;SDS011;71061;55.714;37.794;2024-01-15T14:08:49;21.88;;;10.35;;
81651;SDS011;71061;55.714;37.794;2024-01-15T14:11:15;20.50;;;9.63;;
81651;SDS011;71061;55.714;37.794;2024-01-15T14:14:01;25.20;;;10.70;;
81651;SDS011;71061;55.714;37.794;2024-01-15T14:16:27;21.85;;;9.93;;
81651;SDS011;71061;55.714;37.794;2024-01-15T14:18:53;24.30;;;12.52;;
81651;SDS011;71061;55.714;37.794;2024-01-15T14:21:19;18.00;;;10.02;;
81651;SDS011;71061;55.714;37.794;2024-01-15T14:23:45;26.17;;;9.77;;
81651;SDS011;71061;55.714;37.794;2024-01-15T14:28:57;25.88;;;10.50;;
81651;SDS011;71061;55.714;37.794;2024-01-15T14:31:24;19.60;;;10.27;;
81651;SDS011;71061;55.714;37.794;2024-01-15T14:33:52;21.38;;;11.57;;
81651;SDS011;71061;55.714;37.794;2024-01-15T14:36:17;22.13;;;11.07;;
81651;SDS011;71061;55.714;37.794;2024-01-15T14:38:43;21.80;;;10.25;;
81651;SDS011;71061;55.714;37.794;2024-01-15T14:41:09;21.30;;;10.68;;
81651;SDS011;71061;55.714;37.794;2024-01-15T14:43:35;19.23;;;9.43;;
81651;SDS011;71061;55.714;37.794;2024-01-15T14:46:00;20.95;;;10.90;;
81651;SDS011;71061;55.714;37.794;2024-01-15T14:51:12;20.10;;;9.88;;
81651;SDS011;71061;55.714;37.794;2024-01-15T14:53:38;19.92;;;10.65;;
81651;SDS011;71061;55.714;37.794;2024-01-15T14:56:24;20.85;;;10.25;;
81651;SDS011;71061;55.714;37.794;2024-01-15T14:58:50;21.05;;;11.68;;
81651;SDS011;71061;55.714;37.794;2024-01-15T15:01:15;21.80;;;10.75;;
81651;SDS011;71061;55.714;37.794;2024-01-15T15:03:41;24.30;;;11.20;;
81651;SDS011;71061;55.714;37.794;2024-01-15T15:06:07;20.13;;;11.02;;
81651;SDS011;71061;55.714;37.794;2024-01-15T15:08:33;22.05;;;10.82;;
81651;SDS011;71061;55.714;37.794;2024-01-15T15:11:00;25.17;;;12.15;;
81651;SDS011;71061;55.714;37.794;2024-01-15T15:13:26;21.17;;;10.30;;
81651;SDS011;71061;55.714;37.794;2024-01-15T15:15:52;23.88;;;12.18;;
81651;SDS011;71061;55.714;37.794;2024-01-15T15:18:19;22.10;;;10.50;;
81651;SDS011;71061;55.714;37.794;2024-01-15T15:20:47;20.85;;;11.30;;
81651;SDS011;71061;55.714;37.794;2024-01-15T15:23:33;22.15;;;11.43;;
81651;SDS011;71061;55.714;37.794;2024-01-15T15:25:59;19.83;;;9.88;;